Archival Weather

Chicago O'Hare International

Chicago, Illinois (KORD)

Report from: Saturday, May 20, 2023 10:51 AM CDT
Current time: Sunday, February 25, 2024 2:39 PM CST

Current weather – Weather history – Daily summaries
Weather forecast

Temperature16.1°C (61.0°F)
Dew point6.1°C (43.0°F)
Winds 11 kts (5.7 m/s, 12.7 mph) North (360°)
Visibility10 mi. (16.1 km)
Clouds Scattered clouds 3,400 ft. (1,036 m)
Altimeter30.16 in.Hg (1021 mB)
Relative humidity52 %
Density altitude-0 ft. (-0 m)
Sea-level pressure102.1 kPa (1021 mB, 30.16 in.Hg)
Remarks Automated weather observing station with precipitation discriminator
Flight conditions Visual Meteorological Conditions
Raw dataKORD 201551Z 36011KT 10SM SCT034 16/06 A3016 RMK AO2 SLP212 T01610061
An error has occurred. This application may no longer respond until reloaded. Reload 🗙